Time;durP1;ratioP1;P1;durP2;ratioP2;P2;SDS_P1;SDS_P2;PMS_P1;PMS_P2;Temp;Humidity;BMP_temperature;BMP_pressure;BME280_temperature;BME280_humidity;BME280_pressure;Samples;Min_cycle;Max_cycle;Signal;HPM_P1;HPM_P2
2021/10/03 00:01:01;;;;;;;2.70;0.80;;;;;;;;;;5011364;28;20026;-60
2021/10/03 00:03:27;;;;;;;1.65;0.70;;;;;;;;;;5011090;28;20033;-60
2021/10/03 00:05:54;;;;;;;0.80;0.60;;;;;;;;;;5011226;28;20026;-60
2021/10/03 00:08:21;;;;;;;1.88;0.63;;;;;;;;;;5011412;28;20034;-60
2021/10/03 00:10:47;;;;;;;2.15;0.70;;;;;;;;;;5011264;28;20033;-60
2021/10/03 00:13:13;;;;;;;2.60;0.77;;;;;;;;;;5011212;28;20044;-60
2021/10/03 00:15:39;;;;;;;0.63;0.63;;;;;;;;;;5011054;28;20063;-60
2021/10/03 00:18:07;;;;;;;4.38;0.73;;;;;;;;;;5033617;27;20027;-61
2021/10/03 00:20:33;;;;;;;3.25;0.77;;;;;;;;;;5134831;27;20030;-59
2021/10/03 00:22:59;;;;;;;1.58;0.82;;;;;;;;;;5134708;27;20454;-59
2021/10/03 00:25:26;;;;;;;0.93;0.60;;;;;;;;;;5134680;27;20027;-61
2021/10/03 00:27:53;;;;;;;3.50;0.70;;;;;;;;;;5126957;27;20039;-61
2021/10/03 00:30:19;;;;;;;2.47;0.80;;;;;;;;;;5011330;28;20076;-60
2021/10/03 00:32:46;;;;;;;3.58;0.60;;;;;;;;;;5010807;28;20053;-61
2021/10/03 00:35:12;;;;;;;2.67;0.80;;;;;;;;;;5011078;28;20054;-62
2021/10/03 00:37:38;;;;;;;4.63;0.90;;;;;;;;;;5010636;28;20465;-61
2021/10/03 00:40:04;;;;;;;5.40;0.70;;;;;;;;;;5010690;28;20033;-60
2021/10/03 00:42:30;;;;;;;3.92;0.70;;;;;;;;;;5078426;28;20377;-60
2021/10/03 00:44:56;;;;;;;4.13;0.80;;;;;;;;;;5010651;28;20465;-59
2021/10/03 00:47:24;;;;;;;3.00;0.60;;;;;;;;;;5010671;28;20049;-59
2021/10/03 00:49:50;;;;;;;2.72;0.70;;;;;;;;;;5010642;28;20018;-60
2021/10/03 00:52:16;;;;;;;5.05;0.63;;;;;;;;;;5027893;27;20148;-59
2021/10/03 00:54:42;;;;;;;5.07;0.75;;;;;;;;;;5134287;27;20052;-59
2021/10/03 00:57:08;;;;;;;5.90;0.70;;;;;;;;;;5086692;27;20121;-60
2021/10/03 00:59:35;;;;;;;1.55;0.65;;;;;;;;;;5098357;28;20388;-59
2021/10/03 01:02:01;;;;;;;2.35;0.60;;;;;;;;;;5029232;28;20040;-59
2021/10/03 01:04:27;;;;;;;1.55;0.60;;;;;;;;;;5030167;28;20692;-60
2021/10/03 01:06:53;;;;;;;0.50;0.50;;;;;;;;;;5030251;28;20029;-60
2021/10/03 01:09:20;;;;;;;1.48;0.50;;;;;;;;;;5098393;28;20109;-60
2021/10/03 01:11:46;;;;;;;0.55;0.45;;;;;;;;;;5029995;28;20061;-61
2021/10/03 01:14:12;;;;;;;0.63;0.50;;;;;;;;;;5029836;28;20128;-61
2021/10/03 01:16:38;;;;;;;1.27;0.57;;;;;;;;;;5030146;28;20166;-60
2021/10/03 01:19:05;;;;;;;2.38;0.70;;;;;;;;;;5091723;27;20064;-62
2021/10/03 01:21:31;;;;;;;3.85;0.70;;;;;;;;;;5133825;27;20030;-61
2021/10/03 01:23:57;;;;;;;1.65;0.70;;;;;;;;;;5133675;27;20027;-61
2021/10/03 01:26:23;;;;;;;5.20;0.82;;;;;;;;;;5133727;27;20022;-61
2021/10/03 01:28:53;;;;;;;2.15;0.70;;;;;;;;;;5089877;27;20050;-61
2021/10/03 01:31:20;;;;;;;6.20;0.88;;;;;;;;;;5010112;28;20018;-60
2021/10/03 01:33:46;;;;;;;0.75;0.60;;;;;;;;;;5077669;28;20412;-62
2021/10/03 01:36:12;;;;;;;6.75;0.60;;;;;;;;;;5009805;28;20554;-61
2021/10/03 01:38:38;;;;;;;2.30;0.65;;;;;;;;;;5010015;28;20030;-60
2021/10/03 01:41:04;;;;;;;3.10;0.77;;;;;;;;;;5010051;28;20091;-60
2021/10/03 01:43:30;;;;;;;12.20;1.25;;;;;;;;;;5009939;28;20159;-59
2021/10/03 01:45:56;;;;;;;2.05;0.77;;;;;;;;;;5077040;28;20124;-63
2021/10/03 01:48:23;;;;;;;6.43;0.90;;;;;;;;;;5009883;28;20113;-62
2021/10/03 01:50:51;;;;;;;8.23;0.88;;;;;;;;;;5009709;28;20028;-62
2021/10/03 01:53:19;;;;;;;20.52;0.88;;;;;;;;;;5079523;28;20127;-62
2021/10/03 01:55:46;;;;;;;19.33;1.10;;;;;;;;;;5133450;28;20080;-60
2021/10/03 01:58:12;;;;;;;5.78;0.70;;;;;;;;;;5133392;28;20039;-60
2021/10/03 02:00:39;;;;;;;4.47;0.73;;;;;;;;;;5099468;28;20023;-60
2021/10/03 02:03:06;;;;;;;4.30;0.70;;;;;;;;;;5069214;28;20491;-60
2021/10/03 02:05:39;;;;;;;5.95;0.98;;;;;;;;;;5087591;28;20051;-59
2021/10/03 02:08:08;;;;;;;5.13;1.02;;;;;;;;;;5100733;28;20416;-60
2021/10/03 02:10:35;;;;;;;5.93;0.93;;;;;;;;;;5076614;28;20022;-60
2021/10/03 02:13:02;;;;;;;3.78;0.80;;;;;;;;;;5089229;27;20030;-60
2021/10/03 02:15:28;;;;;;;9.35;1.27;;;;;;;;;;5136474;27;20019;-60
2021/10/03 02:17:54;;;;;;;7.53;1.13;;;;;;;;;;5136906;27;20037;-60
2021/10/03 02:20:21;;;;;;;8.80;0.80;;;;;;;;;;5137072;27;20492;-60
2021/10/03 02:22:48;;;;;;;5.43;0.90;;;;;;;;;;5137163;27;20076;-60
2021/10/03 02:25:14;;;;;;;4.90;0.90;;;;;;;;;;5137106;27;20022;-59
2021/10/03 02:27:41;;;;;;;8.40;1.00;;;;;;;;;;5136712;27;20104;-60
2021/10/03 02:30:08;;;;;;;11.13;0.80;;;;;;;;;;5137034;27;20023;-59
2021/10/03 02:32:34;;;;;;;9.88;1.25;;;;;;;;;;5136859;27;20099;-60
2021/10/03 02:35:00;;;;;;;9.10;1.63;;;;;;;;;;5101161;27;20121;-60
2021/10/03 02:37:26;;;;;;;6.93;0.90;;;;;;;;;;5032277;28;20038;-59
2021/10/03 02:39:52;;;;;;;3.88;1.20;;;;;;;;;;5032338;28;20022;-60
2021/10/03 02:42:18;;;;;;;9.20;1.23;;;;;;;;;;5032445;28;20029;-60
2021/10/03 02:44:45;;;;;;;5.32;0.93;;;;;;;;;;5032145;28;20032;-59
2021/10/03 02:47:12;;;;;;;7.75;1.23;;;;;;;;;;5032093;28;20032;-60
2021/10/03 02:49:42;;;;;;;4.55;1.00;;;;;;;;;;5032235;28;20113;-60
2021/10/03 02:52:09;;;;;;;4.10;1.10;;;;;;;;;;5041586;27;20057;-60
2021/10/03 02:54:35;;;;;;;4.65;0.95;;;;;;;;;;5052461;27;20025;-60
2021/10/03 02:57:01;;;;;;;7.15;1.00;;;;;;;;;;5031949;28;20040;-62
2021/10/03 02:59:27;;;;;;;6.47;1.08;;;;;;;;;;5100790;28;20025;-59
2021/10/03 03:01:53;;;;;;;7.72;0.90;;;;;;;;;;5031879;28;20021;-60
2021/10/03 03:04:19;;;;;;;4.10;0.90;;;;;;;;;;5032069;28;20081;-60
2021/10/03 03:06:45;;;;;;;4.05;0.80;;;;;;;;;;5031838;28;20026;-60
2021/10/03 03:09:11;;;;;;;4.88;0.98;;;;;;;;;;5031935;28;20462;-60
2021/10/03 03:11:37;;;;;;;3.30;0.82;;;;;;;;;;5099344;28;20040;-60
2021/10/03 03:14:03;;;;;;;4.95;1.20;;;;;;;;;;5032257;28;20377;-60
2021/10/03 03:16:29;;;;;;;5.18;1.10;;;;;;;;;;5031742;28;20038;-60
2021/10/03 03:18:55;;;;;;;10.68;1.20;;;;;;;;;;5086241;27;20374;-60
2021/10/03 03:21:21;;;;;;;6.55;1.35;;;;;;;;;;5136277;27;20020;-59
2021/10/03 03:23:47;;;;;;;12.00;1.52;;;;;;;;;;5135296;27;20030;-60
2021/10/03 03:26:13;;;;;;;6.10;1.10;;;;;;;;;;5135682;27;20110;-60
2021/10/03 03:28:39;;;;;;;8.23;1.30;;;;;;;;;;5135750;27;20082;-60
2021/10/03 03:31:05;;;;;;;8.30;0.93;;;;;;;;;;5135670;27;20072;-59
2021/10/03 03:33:31;;;;;;;8.43;1.40;;;;;;;;;;5095034;27;20030;-59
2021/10/03 03:35:57;;;;;;;8.98;1.55;;;;;;;;;;5031573;28;20061;-60
2021/10/03 03:38:23;;;;;;;6.40;1.30;;;;;;;;;;5031354;28;20108;-60
2021/10/03 03:40:49;;;;;;;5.00;1.13;;;;;;;;;;5031283;28;20025;-63
2021/10/03 03:43:15;;;;;;;7.15;1.00;;;;;;;;;;5030983;28;20132;-60
2021/10/03 03:45:41;;;;;;;7.35;1.30;;;;;;;;;;5031202;28;20079;-59
2021/10/03 03:48:07;;;;;;;6.43;1.02;;;;;;;;;;5031180;28;20037;-60
2021/10/03 03:50:34;;;;;;;9.27;1.40;;;;;;;;;;5031285;28;20331;-60
2021/10/03 03:53:01;;;;;;;10.05;1.23;;;;;;;;;;5077908;27;20023;-59
2021/10/03 03:55:27;;;;;;;4.82;0.85;;;;;;;;;;5135313;27;20031;-60
2021/10/03 03:57:53;;;;;;;5.90;1.00;;;;;;;;;;5123182;27;20031;-60
2021/10/03 04:00:19;;;;;;;9.68;1.65;;;;;;;;;;5030924;28;20384;-60
2021/10/03 04:02:45;;;;;;;11.70;1.10;;;;;;;;;;5098883;28;20036;-59
2021/10/03 04:05:11;;;;;;;4.25;0.90;;;;;;;;;;5031006;28;20025;-60
2021/10/03 04:07:37;;;;;;;4.13;1.02;;;;;;;;;;5031110;28;20029;-59
2021/10/03 04:10:05;;;;;;;7.90;1.30;;;;;;;;;;5030762;28;20101;-60
2021/10/03 04:12:31;;;;;;;7.78;0.90;;;;;;;;;;5031211;28;20037;-60
2021/10/03 04:14:57;;;;;;;10.90;1.58;;;;;;;;;;5023938;28;20045;-60
2021/10/03 04:17:23;;;;;;;4.35;1.17;;;;;;;;;;5078901;28;20034;-59
2021/10/03 04:19:49;;;;;;;12.77;1.25;;;;;;;;;;5122002;27;20024;-60
2021/10/03 04:22:15;;;;;;;7.13;1.00;;;;;;;;;;5116583;27;20027;-60
2021/10/03 04:24:41;;;;;;;11.40;1.08;;;;;;;;;;5134797;27;20027;-59
2021/10/03 04:27:07;;;;;;;6.68;0.90;;;;;;;;;;5134632;27;20035;-59
2021/10/03 04:29:33;;;;;;;11.20;0.80;;;;;;;;;;5134584;27;20134;-60
2021/10/03 04:31:58;;;;;;;6.07;1.00;;;;;;;;;;5134433;27;20355;-59
2021/10/03 04:34:24;;;;;;;8.20;1.27;;;;;;;;;;5134615;27;20035;-60
2021/10/03 04:36:51;;;;;;;2.63;0.80;;;;;;;;;;5133587;27;20114;-60
2021/10/03 04:39:17;;;;;;;3.58;0.93;;;;;;;;;;5134539;27;20084;-60
2021/10/03 04:41:43;;;;;;;3.47;0.77;;;;;;;;;;5134436;27;20102;-60
2021/10/03 04:44:09;;;;;;;5.85;1.00;;;;;;;;;;5134201;27;20106;-60
2021/10/03 04:46:35;;;;;;;6.72;0.98;;;;;;;;;;5117738;27;20032;-60
2021/10/03 04:49:01;;;;;;;5.35;1.10;;;;;;;;;;5030232;28;20108;-60
2021/10/03 04:51:27;;;;;;;4.43;1.10;;;;;;;;;;5030522;28;20053;-60
2021/10/03 04:53:53;;;;;;;10.68;1.15;;;;;;;;;;5114358;27;20414;-60
2021/10/03 04:56:19;;;;;;;2.65;1.08;;;;;;;;;;5134541;27;20019;-60
2021/10/03 04:58:45;;;;;;;3.58;0.80;;;;;;;;;;5134188;27;20035;-60
2021/10/03 05:01:11;;;;;;;3.22;0.90;;;;;;;;;;5134030;27;20504;-60
2021/10/03 05:03:37;;;;;;;5.03;0.88;;;;;;;;;;5134453;27;20072;-59
2021/10/03 05:06:07;;;;;;;2.05;0.65;;;;;;;;;;5134142;27;20510;-60
2021/10/03 05:08:33;;;;;;;5.40;0.93;;;;;;;;;;5134267;27;20015;-60
2021/10/03 05:10:59;;;;;;;2.85;0.80;;;;;;;;;;5115540;27;20023;-60
2021/10/03 05:13:25;;;;;;;9.18;0.82;;;;;;;;;;5075442;27;20034;-59
2021/10/03 05:15:56;;;;;;;2.55;0.73;;;;;;;;;;5010122;28;20023;-60
2021/10/03 05:18:22;;;;;;;11.35;0.93;;;;;;;;;;5046512;27;20466;-60
2021/10/03 05:20:47;;;;;;;10.02;1.00;;;;;;;;;;5134095;27;20029;-60
2021/10/03 05:23:13;;;;;;;3.03;0.80;;;;;;;;;;5134459;27;20379;-60
2021/10/03 05:25:39;;;;;;;15.18;0.80;;;;;;;;;;5134084;27;20054;-60
2021/10/03 05:28:05;;;;;;;6.53;0.90;;;;;;;;;;5115124;27;20043;-60
2021/10/03 05:30:31;;;;;;;21.35;1.20;;;;;;;;;;5067916;27;20044;-60
2021/10/03 05:32:57;;;;;;;14.85;0.85;;;;;;;;;;5029867;28;20045;-59
2021/10/03 05:35:23;;;;;;;10.02;0.90;;;;;;;;;;5029758;28;20021;-59
2021/10/03 05:37:50;;;;;;;11.60;1.10;;;;;;;;;;5029555;28;20116;-59
2021/10/03 05:40:16;;;;;;;8.85;1.10;;;;;;;;;;5029581;28;20033;-62
2021/10/03 05:42:42;;;;;;;22.58;0.95;;;;;;;;;;5029984;28;20051;-61
2021/10/03 05:45:09;;;;;;;23.15;0.90;;;;;;;;;;5029571;28;20021;-62
2021/10/03 05:47:35;;;;;;;11.85;1.27;;;;;;;;;;5077444;27;20038;-60
2021/10/03 05:50:01;;;;;;;10.13;1.13;;;;;;;;;;5077716;27;20027;-61
2021/10/03 05:52:27;;;;;;;18.45;1.05;;;;;;;;;;5107211;27;20439;-62
2021/10/03 05:54:53;;;;;;;21.98;1.38;;;;;;;;;;5080004;27;20049;-61
2021/10/03 05:57:19;;;;;;;7.40;0.80;;;;;;;;;;5105216;27;20027;-60
2021/10/03 05:59:45;;;;;;;7.82;1.13;;;;;;;;;;5094833;28;20650;-59
2021/10/03 06:02:12;;;;;;;6.22;0.80;;;;;;;;;;5069082;27;20087;-61
2021/10/03 06:04:38;;;;;;;7.63;1.00;;;;;;;;;;5094413;27;20461;-61
2021/10/03 06:07:04;;;;;;;13.25;0.70;;;;;;;;;;5079763;27;20041;-60
2021/10/03 06:09:30;;;;;;;10.15;0.88;;;;;;;;;;5086504;27;20094;-61
2021/10/03 06:11:56;;;;;;;3.20;0.90;;;;;;;;;;5087809;27;20028;-60
2021/10/03 06:14:22;;;;;;;9.25;1.38;;;;;;;;;;5107823;27;20717;-61
2021/10/03 06:16:49;;;;;;;7.55;1.00;;;;;;;;;;5080016;27;20390;-60
2021/10/03 06:19:15;;;;;;;10.77;0.90;;;;;;;;;;5102238;27;20028;-61
2021/10/03 06:21:50;;;;;;;14.68;1.10;;;;;;;;;;5085604;27;20025;-60
2021/10/03 06:24:18;;;;;;;7.70;1.00;;;;;;;;;;5086955;27;20111;-60
2021/10/03 06:26:47;;;;;;;10.98;0.90;;;;;;;;;;5083028;27;20019;-60
2021/10/03 06:29:13;;;;;;;10.48;0.90;;;;;;;;;;5090090;27;20128;-63
2021/10/03 06:31:39;;;;;;;10.90;1.17;;;;;;;;;;5063596;27;20529;-61
2021/10/03 06:34:05;;;;;;;14.32;1.00;;;;;;;;;;5069371;27;20045;-62
2021/10/03 06:36:31;;;;;;;9.68;1.10;;;;;;;;;;5106448;27;20064;-62
2021/10/03 06:38:58;;;;;;;18.52;1.00;;;;;;;;;;5134571;27;20031;-60
2021/10/03 06:41:24;;;;;;;30.63;1.20;;;;;;;;;;5135329;27;20489;-60
2021/10/03 06:43:50;;;;;;;14.82;1.67;;;;;;;;;;5079523;27;20594;-60
2021/10/03 06:46:16;;;;;;;11.73;1.20;;;;;;;;;;5031645;28;20021;-59
2021/10/03 06:48:42;;;;;;;31.95;1.65;;;;;;;;;;5031528;28;20029;-59
2021/10/03 06:51:08;;;;;;;34.53;1.80;;;;;;;;;;5034277;27;20029;-60
2021/10/03 06:53:34;;;;;;;40.20;2.38;;;;;;;;;;5106977;27;20449;-61
2021/10/03 06:56:01;;;;;;;18.88;1.23;;;;;;;;;;5136642;27;20023;-60
2021/10/03 06:58:27;;;;;;;22.45;1.40;;;;;;;;;;5044298;27;20123;-60
2021/10/03 07:00:53;;;;;;;27.35;1.52;;;;;;;;;;5039018;27;20022;-60
2021/10/03 07:03:19;;;;;;;15.40;1.15;;;;;;;;;;5023364;27;20071;-63
2021/10/03 07:05:45;;;;;;;23.08;1.70;;;;;;;;;;5104599;27;20043;-62
2021/10/03 07:08:12;;;;;;;16.58;1.10;;;;;;;;;;5067433;27;20082;-60
2021/10/03 07:10:38;;;;;;;22.30;1.38;;;;;;;;;;5119634;27;20022;-62
2021/10/03 07:13:05;;;;;;;15.13;1.27;;;;;;;;;;5124292;27;20362;-60
2021/10/03 07:15:31;;;;;;;10.07;0.98;;;;;;;;;;5031323;28;20018;-61
2021/10/03 07:17:57;;;;;;;28.08;1.40;;;;;;;;;;5044745;27;20036;-64
2021/10/03 07:20:23;;;;;;;17.95;1.05;;;;;;;;;;5135772;27;20015;-60
2021/10/03 07:22:49;;;;;;;20.27;1.27;;;;;;;;;;5073897;27;20112;-63
2021/10/03 07:25:15;;;;;;;15.10;0.98;;;;;;;;;;5030495;28;20026;-59
2021/10/03 07:27:41;;;;;;;10.88;0.95;;;;;;;;;;5030876;28;20045;-62
2021/10/03 07:30:08;;;;;;;19.38;1.45;;;;;;;;;;5031538;28;20508;-60
2021/10/03 07:32:34;;;;;;;11.30;0.90;;;;;;;;;;5014334;28;20099;-63
2021/10/03 07:35:00;;;;;;;9.10;1.00;;;;;;;;;;5085274;27;20432;-60
2021/10/03 07:37:26;;;;;;;9.35;1.00;;;;;;;;;;5135757;27;20031;-59
2021/10/03 07:39:52;;;;;;;11.57;1.10;;;;;;;;;;5135522;27;20466;-61
2021/10/03 07:42:18;;;;;;;10.05;1.20;;;;;;;;;;5135571;27;20094;-61
2021/10/03 07:44:44;;;;;;;10.55;0.80;;;;;;;;;;5117828;27;20124;-59
2021/10/03 07:47:10;;;;;;;11.90;1.05;;;;;;;;;;5066182;27;20132;-60
2021/10/03 07:49:36;;;;;;;7.38;1.00;;;;;;;;;;5030558;28;20025;-60
2021/10/03 07:52:02;;;;;;;10.15;1.10;;;;;;;;;;5035294;27;20062;-59
2021/10/03 07:54:28;;;;;;;10.80;0.90;;;;;;;;;;5134649;27;20031;-59
2021/10/03 07:56:54;;;;;;;8.85;0.80;;;;;;;;;;5115466;27;20015;-60
2021/10/03 07:59:20;;;;;;;3.90;0.73;;;;;;;;;;5103694;27;20416;-60
2021/10/03 08:01:46;;;;;;;6.95;1.10;;;;;;;;;;5030035;28;20030;-61
2021/10/03 08:04:12;;;;;;;3.75;0.90;;;;;;;;;;5030528;28;20098;-61
2021/10/03 08:06:38;;;;;;;4.80;0.88;;;;;;;;;;5030773;28;20615;-60
2021/10/03 08:09:04;;;;;;;7.03;0.95;;;;;;;;;;5030520;28;20025;-62
2021/10/03 08:11:30;;;;;;;7.05;1.10;;;;;;;;;;5030383;28;20081;-60
2021/10/03 08:13:56;;;;;;;5.15;1.00;;;;;;;;;;5084651;27;20075;-63
2021/10/03 08:16:22;;;;;;;5.13;0.80;;;;;;;;;;5078856;28;20030;-61
2021/10/03 08:18:48;;;;;;;7.07;0.90;;;;;;;;;;5069728;27;20081;-60
2021/10/03 08:21:15;;;;;;;12.25;1.00;;;;;;;;;;5134551;27;20090;-60
2021/10/03 08:23:41;;;;;;;5.53;0.80;;;;;;;;;;5116130;27;20374;-60
2021/10/03 08:26:08;;;;;;;5.25;1.00;;;;;;;;;;5116089;27;20027;-60
2021/10/03 08:28:34;;;;;;;2.58;0.57;;;;;;;;;;5115903;27;20054;-61
2021/10/03 08:31:00;;;;;;;4.40;0.98;;;;;;;;;;5115958;27;20083;-60
2021/10/03 08:33:26;;;;;;;14.30;0.90;;;;;;;;;;5092389;27;20028;-60
2021/10/03 08:35:52;;;;;;;5.30;0.80;;;;;;;;;;5030359;28;20025;-61
2021/10/03 08:38:18;;;;;;;2.47;0.82;;;;;;;;;;5030272;28;20045;-60
2021/10/03 08:40:44;;;;;;;3.45;0.60;;;;;;;;;;5030631;28;20028;-60
2021/10/03 08:43:10;;;;;;;8.68;1.00;;;;;;;;;;5030003;28;20025;-60
2021/10/03 08:45:43;;;;;;;3.00;0.95;;;;;;;;;;5030329;28;20044;-60
2021/10/03 08:48:10;;;;;;;4.70;0.75;;;;;;;;;;5029921;28;20422;-60
2021/10/03 08:50:36;;;;;;;3.63;0.60;;;;;;;;;;5030153;28;20449;-60
2021/10/03 08:53:02;;;;;;;5.55;0.80;;;;;;;;;;5077883;27;20034;-60
2021/10/03 08:55:28;;;;;;;2.17;1.13;;;;;;;;;;5134301;27;20034;-61
2021/10/03 08:57:54;;;;;;;4.13;0.75;;;;;;;;;;5133906;27;20035;-60
2021/10/03 09:00:21;;;;;;;2.05;0.70;;;;;;;;;;5134132;27;20035;-60
2021/10/03 09:03:02;;;;;;;2.45;0.90;;;;;;;;;;5056268;27;20465;-60
2021/10/03 09:05:35;;;;;;;7.22;1.02;;;;;;;;;;5010010;28;20026;-60
2021/10/03 09:08:11;;;;;;;1.48;0.60;;;;;;;;;;5009949;28;20056;-60
2021/10/03 09:10:43;;;;;;;2.47;0.80;;;;;;;;;;5010152;28;20477;-61
2021/10/03 09:13:09;;;;;;;4.13;0.60;;;;;;;;;;5035679;27;20031;-60
2021/10/03 09:15:35;;;;;;;2.20;0.63;;;;;;;;;;5029205;28;20057;-59
2021/10/03 09:18:01;;;;;;;14.82;0.80;;;;;;;;;;5021890;28;20091;-60
2021/10/03 09:20:30;;;;;;;10.13;0.88;;;;;;;;;;5009102;28;20397;-59
2021/10/03 09:22:58;;;;;;;3.70;0.70;;;;;;;;;;5008726;28;20057;-60
2021/10/03 09:25:30;;;;;;;18.40;1.23;;;;;;;;;;5076348;28;20480;-59
2021/10/03 09:27:56;;;;;;;10.77;0.85;;;;;;;;;;5008864;28;20422;-60
2021/10/03 09:30:23;;;;;;;6.10;1.00;;;;;;;;;;5009519;28;20022;-60
2021/10/03 09:32:56;;;;;;;5.95;1.15;;;;;;;;;;5010346;28;20117;-60
2021/10/03 09:35:24;;;;;;;5.63;0.90;;;;;;;;;;5009387;28;20018;-60
2021/10/03 09:37:50;;;;;;;5.97;1.15;;;;;;;;;;5009900;28;20034;-59
2021/10/03 09:40:17;;;;;;;8.40;0.70;;;;;;;;;;5009859;28;20022;-59
2021/10/03 09:43:03;;;;;;;3.45;0.90;;;;;;;;;;5009934;28;20018;-60
2021/10/03 09:45:29;;;;;;;11.25;1.00;;;;;;;;;;5009961;28;20078;-59
2021/10/03 09:48:03;;;;;;;5.03;0.75;;;;;;;;;;5009740;28;20033;-60
2021/10/03 09:50:29;;;;;;;4.10;0.82;;;;;;;;;;5009996;28;20026;-60
2021/10/03 09:52:56;;;;;;;3.83;0.80;;;;;;;;;;5060746;28;20076;-60
2021/10/03 09:55:25;;;;;;;3.88;0.80;;;;;;;;;;5082540;28;20065;-60
2021/10/03 09:57:52;;;;;;;12.90;0.90;;;;;;;;;;5029469;28;20025;-60
2021/10/03 10:00:18;;;;;;;11.35;1.08;;;;;;;;;;5029492;28;20026;-60
2021/10/03 10:02:45;;;;;;;6.38;0.88;;;;;;;;;;5097522;28;20028;-60
2021/10/03 10:05:11;;;;;;;5.93;0.60;;;;;;;;;;5029525;28;20109;-59
2021/10/03 10:07:37;;;;;;;8.80;0.70;;;;;;;;;;5097730;28;20036;-60
2021/10/03 10:10:07;;;;;;;2.95;0.70;;;;;;;;;;5029010;28;20544;-60
2021/10/03 10:12:35;;;;;;;3.45;0.60;;;;;;;;;;5018874;28;20113;-60
2021/10/03 10:15:04;;;;;;;8.02;0.70;;;;;;;;;;5008513;28;20022;-59
2021/10/03 10:17:38;;;;;;;7.28;0.63;;;;;;;;;;5009469;28;20038;-60
2021/10/03 10:20:04;;;;;;;5.63;0.70;;;;;;;;;;5009569;28;20028;-59
2021/10/03 10:22:31;;;;;;;5.07;0.77;;;;;;;;;;5009327;28;20030;-60
2021/10/03 10:24:59;;;;;;;9.88;0.88;;;;;;;;;;5009317;28;20063;-60
2021/10/03 10:27:25;;;;;;;2.08;0.57;;;;;;;;;;5009209;28;20447;-60
2021/10/03 10:29:52;;;;;;;4.07;0.50;;;;;;;;;;5009000;28;20087;-59
2021/10/03 10:32:19;;;;;;;3.90;0.60;;;;;;;;;;5077074;28;20105;-60
2021/10/03 10:35:03;;;;;;;6.00;0.68;;;;;;;;;;5010868;28;20033;-60
2021/10/03 10:37:54;;;;;;;4.10;0.70;;;;;;;;;;5012398;28;20079;-59
2021/10/03 10:40:25;;;;;;;1.60;0.60;;;;;;;;;;5014889;28;20038;-59
2021/10/03 10:42:54;;;;;;;1.30;0.60;;;;;;;;;;5012602;28;20473;-60
2021/10/03 10:45:41;;;;;;;4.13;0.68;;;;;;;;;;5012553;28;20026;-59
2021/10/03 10:48:07;;;;;;;2.03;0.60;;;;;;;;;;5012378;28;20118;-59
2021/10/03 10:50:36;;;;;;;1.85;0.60;;;;;;;;;;5012574;28;20485;-60
2021/10/03 10:53:16;;;;;;;1.75;0.40;;;;;;;;;;5069396;27;20015;-60
2021/10/03 10:55:42;;;;;;;1.00;0.47;;;;;;;;;;5136247;27;20466;-59
2021/10/03 10:58:09;;;;;;;1.52;0.60;;;;;;;;;;5106712;27;20031;-59
2021/10/03 11:00:47;;;;;;;20.30;1.20;;;;;;;;;;5136770;27;20031;-59
2021/10/03 11:03:13;;;;;;;8.73;0.60;;;;;;;;;;5136630;27;20038;-59
2021/10/03 11:05:44;;;;;;;10.57;0.88;;;;;;;;;;5136376;27;20031;-59
2021/10/03 11:08:12;;;;;;;14.65;0.85;;;;;;;;;;5136166;27;20023;-59
2021/10/03 11:10:57;;;;;;;3.28;0.95;;;;;;;;;;5135883;27;20420;-59
2021/10/03 11:13:41;;;;;;;4.95;0.90;;;;;;;;;;5136458;27;20038;-59
2021/10/03 11:16:25;;;;;;;11.88;0.70;;;;;;;;;;5135976;27;20023;-60
2021/10/03 11:19:05;;;;;;;9.10;0.70;;;;;;;;;;5103698;27;20604;-62
2021/10/03 11:21:31;;;;;;;5.68;0.55;;;;;;;;;;5136285;27;20059;-62
2021/10/03 11:23:58;;;;;;;3.95;0.70;;;;;;;;;;5136064;27;20062;-62
2021/10/03 11:26:24;;;;;;;5.25;0.50;;;;;;;;;;5135690;27;20019;-59
2021/10/03 11:28:57;;;;;;;2.00;0.60;;;;;;;;;;5085058;27;20043;-64
2021/10/03 11:31:38;;;;;;;2.92;0.82;;;;;;;;;;5077639;27;20022;-64
2021/10/03 11:34:05;;;;;;;5.43;0.70;;;;;;;;;;5075104;27;20437;-63
2021/10/03 11:36:32;;;;;;;3.63;0.57;;;;;;;;;;5083336;27;20401;-66
2021/10/03 11:39:00;;;;;;;6.72;0.57;;;;;;;;;;5083948;27;20034;-61
2021/10/03 11:41:26;;;;;;;3.13;0.60;;;;;;;;;;5048084;27;20052;-62
2021/10/03 11:43:53;;;;;;;17.42;0.70;;;;;;;;;;5042792;27;20028;-61
2021/10/03 11:46:19;;;;;;;11.18;0.47;;;;;;;;;;5060706;27;20462;-62
2021/10/03 11:48:50;;;;;;;8.55;0.77;;;;;;;;;;5121135;27;20065;-61
2021/10/03 11:51:16;;;;;;;7.63;0.70;;;;;;;;;;5011728;28;20022;-63
2021/10/03 11:53:47;;;;;;;8.13;0.50;;;;;;;;;;5040321;27;20071;-62
2021/10/03 11:56:15;;;;;;;4.30;0.88;;;;;;;;;;5031277;28;20018;-60
2021/10/03 11:58:42;;;;;;;6.35;0.60;;;;;;;;;;5046582;28;20087;-61
2021/10/03 12:01:08;;;;;;;5.80;0.70;;;;;;;;;;5050571;28;20029;-61
2021/10/03 12:03:45;;;;;;;3.13;0.70;;;;;;;;;;5039410;28;20021;-61
2021/10/03 12:06:21;;;;;;;4.13;0.60;;;;;;;;;;5050947;28;20029;-63
2021/10/03 12:08:48;;;;;;;5.30;0.95;;;;;;;;;;5050464;28;20464;-62
2021/10/03 12:11:14;;;;;;;3.78;0.47;;;;;;;;;;5050579;28;20057;-63
2021/10/03 12:13:40;;;;;;;5.70;0.50;;;;;;;;;;5050307;28;20487;-60
2021/10/03 12:16:17;;;;;;;5.10;0.60;;;;;;;;;;5050156;28;20491;-62
2021/10/03 12:18:44;;;;;;;2.95;0.50;;;;;;;;;;5044837;27;20457;-61
2021/10/03 12:21:10;;;;;;;1.23;0.60;;;;;;;;;;5033323;27;20129;-59
2021/10/03 12:23:42;;;;;;;7.97;0.70;;;;;;;;;;5057587;27;20113;-61
2021/10/03 12:26:13;;;;;;;2.38;0.70;;;;;;;;;;5077013;27;20112;-61
2021/10/03 12:28:53;;;;;;;2.60;0.50;;;;;;;;;;5082766;27;20053;-60
2021/10/03 12:31:39;;;;;;;3.45;0.70;;;;;;;;;;5080088;27;20036;-62
2021/10/03 12:34:07;;;;;;;16.83;0.75;;;;;;;;;;5087755;27;20041;-62
2021/10/03 12:36:34;;;;;;;19.35;0.85;;;;;;;;;;5096562;28;20028;-62
2021/10/03 12:39:00;;;;;;;11.70;0.93;;;;;;;;;;5081972;27;20059;-60
2021/10/03 12:41:26;;;;;;;11.77;0.80;;;;;;;;;;5073417;27;20015;-62
2021/10/03 12:43:56;;;;;;;13.18;1.05;;;;;;;;;;5076919;27;20086;-59
2021/10/03 12:46:25;;;;;;;7.13;0.70;;;;;;;;;;5087151;27;20092;-61
2021/10/03 12:48:51;;;;;;;13.43;0.80;;;;;;;;;;5021800;28;20038;-60
2021/10/03 12:51:18;;;;;;;2.80;0.90;;;;;;;;;;5019413;28;20087;-60
2021/10/03 12:53:44;;;;;;;6.47;0.63;;;;;;;;;;5045434;27;20113;-60
2021/10/03 12:56:10;;;;;;;7.57;0.50;;;;;;;;;;5086408;27;20116;-62
2021/10/03 12:58:36;;;;;;;14.13;0.60;;;;;;;;;;5075059;27;20082;-60
2021/10/03 13:01:02;;;;;;;7.57;0.90;;;;;;;;;;5118902;27;20023;-60
2021/10/03 13:03:33;;;;;;;5.45;0.50;;;;;;;;;;5133731;27;20055;-59
2021/10/03 13:06:00;;;;;;;4.47;0.65;;;;;;;;;;5078585;27;20113;-61
2021/10/03 13:08:26;;;;;;;6.55;0.75;;;;;;;;;;5024563;27;20029;-60
2021/10/03 13:10:52;;;;;;;6.07;0.82;;;;;;;;;;5102558;27;20078;-59
2021/10/03 13:13:18;;;;;;;4.32;0.57;;;;;;;;;;5133234;27;20083;-63
2021/10/03 13:15:44;;;;;;;3.42;0.60;;;;;;;;;;5026655;28;20104;-60
2021/10/03 13:18:10;;;;;;;3.55;0.52;;;;;;;;;;5013850;28;20104;-60
2021/10/03 13:20:36;;;;;;;2.03;0.60;;;;;;;;;;5018164;28;20033;-59
2021/10/03 13:23:01;;;;;;;6.65;0.70;;;;;;;;;;5009987;28;20473;-60
2021/10/03 13:25:27;;;;;;;1.70;0.40;;;;;;;;;;5009721;28;20076;-61
2021/10/03 13:27:53;;;;;;;3.10;0.57;;;;;;;;;;5010185;28;20381;-60
2021/10/03 13:30:19;;;;;;;9.10;1.05;;;;;;;;;;5024418;28;20042;-60
2021/10/03 13:32:46;;;;;;;4.25;0.50;;;;;;;;;;5073715;27;20024;-59
2021/10/03 13:35:12;;;;;;;4.47;0.57;;;;;;;;;;5056199;27;20032;-60
2021/10/03 13:37:38;;;;;;;7.60;0.77;;;;;;;;;;5096864;28;20073;-60
2021/10/03 13:40:05;;;;;;;5.82;0.70;;;;;;;;;;5011651;28;20101;-55
2021/10/03 13:42:31;;;;;;;3.33;0.80;;;;;;;;;;5008849;28;20033;-57
2021/10/03 13:44:57;;;;;;;4.45;0.98;;;;;;;;;;5009307;28;20030;-57
2021/10/03 13:47:23;;;;;;;5.57;0.70;;;;;;;;;;5009145;28;20029;-60
2021/10/03 13:49:49;;;;;;;10.25;1.02;;;;;;;;;;5009182;28;20030;-57
2021/10/03 13:52:16;;;;;;;16.02;1.38;;;;;;;;;;5025880;28;20156;-57
2021/10/03 13:54:42;;;;;;;4.13;0.52;;;;;;;;;;5044995;28;20026;-58
2021/10/03 13:57:07;;;;;;;5.78;0.63;;;;;;;;;;5029061;28;20037;-56
2021/10/03 13:59:34;;;;;;;10.68;0.63;;;;;;;;;;5029504;28;20021;-57
2021/10/03 14:02:00;;;;;;;6.97;0.73;;;;;;;;;;5029353;28;20034;-55
2021/10/03 14:04:26;;;;;;;7.60;0.80;;;;;;;;;;5029378;28;20138;-58
2021/10/03 14:06:52;;;;;;;9.50;0.80;;;;;;;;;;5028764;28;20060;-58
2021/10/03 14:09:18;;;;;;;3.50;0.77;;;;;;;;;;5030650;28;20026;-58
2021/10/03 14:11:44;;;;;;;10.07;0.60;;;;;;;;;;5032226;28;20026;-59
2021/10/03 14:14:10;;;;;;;2.53;0.47;;;;;;;;;;5101668;28;20064;-56
2021/10/03 14:16:36;;;;;;;3.45;0.70;;;;;;;;;;5032431;28;20063;-59
2021/10/03 14:19:02;;;;;;;2.95;0.75;;;;;;;;;;5092124;27;20088;-57
2021/10/03 14:21:28;;;;;;;1.33;0.60;;;;;;;;;;5137263;27;20023;-56
2021/10/03 14:23:54;;;;;;;4.47;0.68;;;;;;;;;;5095423;27;20026;-57
2021/10/03 14:26:20;;;;;;;3.78;0.80;;;;;;;;;;5014808;28;20504;-55
2021/10/03 14:28:46;;;;;;;4.03;0.80;;;;;;;;;;5012608;28;20046;-56
2021/10/03 14:31:12;;;;;;;2.67;0.65;;;;;;;;;;5012783;28;20051;-60
2021/10/03 14:33:38;;;;;;;1.60;0.60;;;;;;;;;;5012686;28;20034;-58
2021/10/03 14:36:05;;;;;;;5.15;0.60;;;;;;;;;;5012616;28;20048;-56
2021/10/03 14:38:31;;;;;;;1.13;0.50;;;;;;;;;;5012702;28;20030;-59
2021/10/03 14:40:57;;;;;;;3.80;0.60;;;;;;;;;;5012527;28;20030;-58